TimeIST,TemperatureF,Dew PointF,Humidity,Sea Level PressureIn,VisibilityMPH,Wind Direction,Wind SpeedMPH,Gust SpeedMPH,PrecipitationIn,Events,Conditions,WindDirDegrees,DateUTC
12:10 AM,75.2,73.4,94,29.89,3.1,East,2.3,-,N/A,,Light Drizzle,80,2012-10-20 18:40:00
12:40 AM,75.2,73.4,94,29.89,2.5,East,2.3,-,N/A,,Drizzle,100,2012-10-20 19:10:00
1:40 AM,75.2,73.4,94,29.86,1.9,ENE,2.3,-,N/A,,Light Drizzle,70,2012-10-20 20:10:00
2:10 AM,75.2,73.4,94,29.83,1.9,NNE,5.8,-,N/A,,Drizzle,30,2012-10-20 20:40:00
2:30 AM,76,75,95,29.84,1,NNE,4.6,,,Rain,Drizzle,20,2012-10-20 21:00:00
2:40 AM,75.2,75.2,100,29.83,1.9,NNE,5.8,-,N/A,,Light Drizzle,20,2012-10-20 21:10:00
3:10 AM,75.2,75.2,100,29.83,2.5,NNE,4.6,-,N/A,,Light Drizzle,20,2012-10-20 21:40:00
4:10 AM,75.2,75.2,100,29.83,2.5,NNE,4.6,-,N/A,,Light Drizzle,20,2012-10-20 22:40:00
5:10 AM,75.2,75.2,100,29.83,2.5,NE,8.1,-,N/A,,Haze,40,2012-10-20 23:40:00
5:30 AM,76,73,89,29.85,1,NE,6.9,,,Rain,Light Drizzle,50,2012-10-21 00:00:00
7:40 AM,77.0,75.2,94,29.89,1.9,NE,9.2,-,N/A,,Haze,50,2012-10-21 02:10:00
8:10 AM,77.0,75.2,94,29.89,1.9,ENE,10.4,-,N/A,,Haze,60,2012-10-21 02:40:00
8:30 AM,76,75,95,29.90,1,NE,5.8,,,Rain,Light Drizzle,50,2012-10-21 03:00:00
8:40 AM,75.2,73.4,94,29.89,1.9,ENE,6.9,-,N/A,,Haze,60,2012-10-21 03:10:00
9:10 AM,77.0,75.2,94,29.92,2.5,ENE,10.4,-,N/A,,Haze,70,2012-10-21 03:40:00
9:40 AM,78.8,75.2,89,29.92,2.5,ENE,9.2,-,N/A,,Haze,60,2012-10-21 04:10:00
10:40 AM,80.6,73.4,79,29.89,3.1,NNE,5.8,-,N/A,,Haze,30,2012-10-21 05:10:00
11:10 AM,84.2,75.2,74,29.89,3.7,ENE,6.9,-,N/A,,Mostly Cloudy,60,2012-10-21 05:40:00
11:30 AM,81,75,77,29.90,2,NW,10.4,,,,Haze,320,2012-10-21 06:00:00
11:40 AM,82.4,75.2,79,29.89,5.0,NE,10.4,-,N/A,,Mostly Cloudy,50,2012-10-21 06:10:00
12:10 PM,82.4,75.2,79,29.86,5.0,NE,12.7,-,N/A,,Mostly Cloudy,50,2012-10-21 06:40:00
12:40 PM,82.4,75.2,79,29.83,5.0,East,8.1,-,N/A,,Mostly Cloudy,80,2012-10-21 07:10:00
1:10 PM,84.2,75.2,74,29.83,5.0,East,6.9,-,N/A,,Mostly Cloudy,80,2012-10-21 07:40:00
1:40 PM,84.2,75.2,74,29.80,5.0,NE,10.4,-,N/A,,Mostly Cloudy,50,2012-10-21 08:10:00
2:10 PM,84.2,75.2,74,29.80,5.0,ENE,8.1,-,N/A,,Light Drizzle,60,2012-10-21 08:40:00
2:30 PM,85,74,64,29.80,2,East,11.5,,,Rain,Light Drizzle,90,2012-10-21 09:00:00
2:40 PM,84.2,75.2,74,29.80,5.0,East,11.5,-,N/A,,Mostly Cloudy,80,2012-10-21 09:10:00
3:10 PM,84.2,75.2,74,29.80,3.7,ENE,9.2,-,N/A,,Mostly Cloudy,70,2012-10-21 09:40:00
3:40 PM,82.4,75.2,79,29.80,3.7,East,9.2,-,N/A,,Mostly Cloudy,90,2012-10-21 10:10:00
4:10 PM,82.4,75.2,79,29.77,3.7,East,9.2,-,N/A,,Mostly Cloudy,80,2012-10-21 10:40:00
5:30 PM,77,74,89,29.80,1,NE,3.5,,,Rain-Thunderstorm,Thunderstorms and Rain,50,2012-10-21 12:00:00
6:40 PM,77.0,73.4,89,29.83,3.1,Variable,2.3,-,N/A,,Haze,0,2012-10-21 13:10:00
7:10 PM,77.0,73.4,89,29.83,3.1,Variable,2.3,-,N/A,,Haze,0,2012-10-21 13:40:00
7:40 PM,77.0,75.2,94,29.83,1.9,Calm,Calm,-,N/A,Rain,Rain,0,2012-10-21 14:10:00
8:30 PM,76,74,93,29.86,1,NE,4.6,,,Hail-Thunderstorm,Thunderstorms with Hail,50,2012-10-21 15:00:00
8:40 PM,75.2,73.4,94,29.86,1.9,East,17.3,-,N/A,Rain-Thunderstorm,Thunderstorms and Rain,100,2012-10-21 15:10:00
9:10 PM,75.2,75.2,100,29.86,1.9,ENE,3.5,-,N/A,,Drizzle,70,2012-10-21 15:40:00
9:40 PM,75.2,75.2,100,29.89,1.9,ENE,3.5,-,N/A,,Drizzle,60,2012-10-21 16:10:00
10:10 PM,75.2,75.2,100,29.89,1.9,ENE,5.8,-,N/A,,Light Drizzle,60,2012-10-21 16:40:00
10:40 PM,77.0,75.2,94,29.89,2.5,ENE,8.1,-,N/A,,Haze,60,2012-10-21 17:10:00
11:10 PM,77.0,75.2,94,29.89,2.5,ENE,8.1,-,N/A,,Haze,60,2012-10-21 17:40:00
11:30 PM,75,74,96,29.88,2,NNE,3.5,,,Rain,Light Drizzle,20,2012-10-21 18:00:00